Time;durP1;ratioP1;P1;durP2;ratioP2;P2;SDS_P1;SDS_P2;PMS_P1;PMS_P2;Temp;Humidity;BMP_temperature;BMP_pressure;BME280_temperature;BME280_humidity;BME280_pressure;Samples;Min_cycle;Max_cycle;Signal;HPM_P1;HPM_P2
2022/05/27 00:00:06;;;;;;;2.58;0.95;;;;;;;21.42;50.60;101794.69;5123991;28;20038;-59
2022/05/27 00:02:31;;;;;;;2.83;0.90;;;;;;;21.42;50.52;101797.41;5102315;28;20031;-60
2022/05/27 00:04:56;;;;;;;1.73;0.70;;;;;;;21.41;50.19;101798.44;5103827;28;20020;-59
2022/05/27 00:07:21;;;;;;;1.67;1.20;;;;;;;21.41;50.26;101804.69;5103438;28;20035;-59
2022/05/27 00:09:47;;;;;;;1.77;0.70;;;;;;;21.41;50.40;101804.69;5112623;28;20084;-59
2022/05/27 00:12:12;;;;;;;1.88;0.88;;;;;;;21.41;50.43;101801.97;5121366;28;20054;-57
2022/05/27 00:14:37;;;;;;;1.90;0.80;;;;;;;21.40;50.21;101812.94;5123894;28;20019;-59
2022/05/27 00:17:03;;;;;;;1.48;0.75;;;;;;;21.41;50.24;101811.94;5123197;28;20190;-57
2022/05/27 00:19:28;;;;;;;1.58;0.93;;;;;;;21.41;50.30;101820.91;5104839;28;20027;-58
2022/05/27 00:21:54;;;;;;;1.73;0.60;;;;;;;21.40;49.71;101812.94;5123786;28;20031;-59
2022/05/27 00:24:19;;;;;;;1.55;0.80;;;;;;;21.40;50.35;101819.19;5106408;28;20028;-59
2022/05/27 00:26:44;;;;;;;1.85;0.70;;;;;;;21.39;50.33;101809.38;5107055;28;20031;-58
2022/05/27 00:29:10;;;;;;;0.90;0.70;;;;;;;21.37;50.18;101805.16;5106926;28;20016;-58
2022/05/27 00:31:35;;;;;;;2.75;0.82;;;;;;;21.39;50.32;101803.13;5106888;28;20032;-58
2022/05/27 00:34:00;;;;;;;2.30;0.73;;;;;;;21.38;50.17;101785.22;5106077;28;20020;-58
2022/05/27 00:36:26;;;;;;;1.92;0.90;;;;;;;21.37;50.18;101795.19;5106989;28;20016;-58
2022/05/27 00:38:51;;;;;;;1.92;0.70;;;;;;;21.38;50.34;101807.69;5108112;28;20513;-58
2022/05/27 00:41:16;;;;;;;2.03;0.80;;;;;;;21.36;50.42;101795.34;5113357;28;20028;-58
2022/05/27 00:43:42;;;;;;;1.48;0.70;;;;;;;21.36;50.05;101788.06;5106479;28;20024;-59
2022/05/27 00:46:17;;;;;;;1.67;0.70;;;;;;;21.37;50.21;101791.66;5106823;28;20457;-58
2022/05/27 00:48:44;;;;;;;1.95;0.77;;;;;;;21.37;50.24;101802.47;5087528;28;20109;-59
2022/05/27 00:51:15;;;;;;;1.75;0.95;;;;;;;21.33;50.12;101796.53;5071796;28;20031;-57
2022/05/27 00:54:07;;;;;;;2.28;0.88;;;;;;;21.35;50.25;101794.50;5088603;28;20396;-59
2022/05/27 00:56:34;;;;;;;2.88;0.98;;;;;;;21.35;49.78;101786.38;5085559;28;20036;-59
2022/05/27 00:59:02;;;;;;;2.10;1.02;;;;;;;21.35;50.13;101788.25;5088104;28;20594;-59
2022/05/27 01:01:28;;;;;;;1.95;0.80;;;;;;;21.35;50.43;101793.66;5088049;28;20027;-59
2022/05/27 01:03:55;;;;;;;2.58;0.70;;;;;;;21.35;50.21;101797.19;5087461;28;20111;-59
2022/05/27 01:06:20;;;;;;;1.92;1.35;;;;;;;21.35;50.45;101823.41;5106356;28;20057;-58
2022/05/27 01:08:46;;;;;;;1.42;0.70;;;;;;;21.34;50.31;101810.91;5122142;27;20099;-59
2022/05/27 01:11:37;;;;;;;1.45;0.80;;;;;;;21.35;50.48;101804.47;5133380;27;20020;-59
2022/05/27 01:14:14;;;;;;;1.83;0.90;;;;;;;21.33;50.20;101820.03;5106103;28;20087;-58
2022/05/27 01:16:57;;;;;;;1.20;0.82;;;;;;;21.31;50.13;101809.31;5088330;28;20024;-60
2022/05/27 01:22:40;;;;;;;3.67;0.98;;;;;;;21.31;50.30;101814.72;5106305;28;20100;-59
2022/05/27 01:25:33;;;;;;;1.75;1.17;;;;;;;21.31;50.05;101816.59;5087915;28;20043;-59
2022/05/27 01:28:29;;;;;;;0.93;0.55;;;;;;;21.31;50.44;101816.59;5105782;28;20027;-59
2022/05/27 01:31:09;;;;;;;0.75;0.50;;;;;;;21.30;49.88;101815.75;5105876;28;20016;-58
2022/05/27 01:33:46;;;;;;;1.25;0.60;;;;;;;21.29;50.16;101814.06;5087082;28;20032;-59
2022/05/27 01:36:17;;;;;;;1.25;0.70;;;;;;;21.29;50.03;101814.06;5106057;28;20019;-59
2022/05/27 01:38:53;;;;;;;1.58;0.75;;;;;;;21.29;50.15;101805.94;5087584;28;20048;-59
2022/05/27 01:42:00;;;;;;;2.13;0.70;;;;;;;21.29;50.23;101816.78;5106463;28;20027;-59
2022/05/27 01:44:31;;;;;;;0.95;0.63;;;;;;;21.12;50.25;101794.22;5090905;28;20028;-59
2022/05/27 01:46:56;;;;;;;0.82;0.60;;;;;;;21.29;50.04;101821.34;5070795;28;20028;-55
2022/05/27 01:49:43;;;;;;;1.25;0.85;;;;;;;21.28;49.93;101820.50;5086587;28;20034;-59
2022/05/27 01:52:12;;;;;;;1.20;0.60;;;;;;;21.29;50.09;101807.81;5105793;28;20028;-60
2022/05/27 01:55:03;;;;;;;1.45;0.77;;;;;;;21.27;49.94;101805.25;5105681;28;20027;-60
2022/05/27 01:57:32;;;;;;;1.08;0.70;;;;;;;21.27;49.92;101796.28;5100957;28;20129;-60
2022/05/27 02:00:06;;;;;;;1.88;0.70;;;;;;;21.28;50.04;101800.69;5087262;28;20035;-60
2022/05/27 02:02:31;;;;;;;1.65;0.88;;;;;;;21.26;50.44;101795.44;5085944;28;20032;-60
2022/05/27 02:05:02;;;;;;;1.23;0.80;;;;;;;21.26;49.88;101802.72;5106387;28;20054;-60
2022/05/27 02:07:39;;;;;;;1.52;1.00;;;;;;;21.26;49.90;101811.66;5107357;28;20023;-60
2022/05/27 02:10:21;;;;;;;2.42;0.80;;;;;;;21.25;50.28;101799.16;5125883;27;20041;-59
2022/05/27 02:12:50;;;;;;;0.90;0.60;;;;;;;21.24;50.00;101805.59;5124014;28;20035;-60
2022/05/27 02:15:38;;;;;;;0.98;0.60;;;;;;;21.24;49.99;101802.88;5105065;28;20091;-59
2022/05/27 02:18:31;;;;;;;1.58;0.70;;;;;;;21.24;49.99;101808.31;5085790;28;20032;-59
2022/05/27 02:21:03;;;;;;;1.42;0.60;;;;;;;21.23;50.00;101815.53;5086971;28;20027;-60
2022/05/27 02:23:33;;;;;;;2.03;0.80;;;;;;;21.23;50.20;101814.69;5105054;28;20392;-60
2022/05/27 02:26:00;;;;;;;1.77;0.73;;;;;;;21.22;50.07;101810.31;5105826;28;20066;-60
2022/05/27 02:28:29;;;;;;;1.23;0.60;;;;;;;21.21;50.30;101792.38;5086513;28;20503;-60
2022/05/27 02:30:58;;;;;;;1.55;0.90;;;;;;;21.22;50.01;101792.22;5086555;28;20035;-59
2022/05/27 02:36:14;;;;;;;1.80;0.80;;;;;;;21.22;50.21;101797.63;5089487;28;20045;-60
2022/05/27 02:38:40;;;;;;;1.40;0.70;;;;;;;21.21;50.42;101797.78;5086306;28;20454;-59
2022/05/27 02:41:15;;;;;;;1.67;0.80;;;;;;;21.19;50.46;101800.66;5104617;28;20468;-59
2022/05/27 02:44:06;;;;;;;1.60;0.70;;;;;;;21.21;50.17;101814.03;5104394;28;20043;-60
2022/05/27 02:46:52;;;;;;;1.23;0.90;;;;;;;21.20;50.50;101806.94;5091106;28;20020;-60
2022/05/27 02:49:29;;;;;;;1.48;0.80;;;;;;;21.20;50.51;101812.34;5081536;28;20066;-60
2022/05/27 02:52:20;;;;;;;0.90;0.60;;;;;;;21.18;50.06;101814.34;5106623;28;20027;-59
2022/05/27 02:55:18;;;;;;;1.08;0.50;;;;;;;21.19;49.99;101824.97;5106678;28;20039;-60
2022/05/27 02:57:46;;;;;;;0.82;0.60;;;;;;;21.18;50.06;101822.44;5106488;28;20036;-60
2022/05/27 03:00:15;;;;;;;1.58;0.77;;;;;;;21.18;50.46;101819.75;5106265;28;20038;-59
2022/05/27 03:02:40;;;;;;;;;;;;;;;21.16;50.40;101811.81;5124001;28;20068;-60
2022/05/27 03:05:05;;;;;;;1.40;0.75;;;;;;;21.17;50.32;101815.34;5124684;28;20506;-59
2022/05/27 03:07:34;;;;;;;0.70;0.60;;;;;;;21.15;50.43;101815.53;5121275;28;20028;-60
2022/05/27 03:10:21;;;;;;;1.15;0.60;;;;;;;21.15;50.37;101814.66;5114027;27;20039;-60
2022/05/27 03:12:52;;;;;;;1.48;0.80;;;;;;;21.14;50.05;101811.09;5101128;28;20016;-59
2022/05/27 03:15:28;;;;;;;1.50;0.73;;;;;;;21.15;50.21;101811.94;5104068;28;20028;-60
2022/05/27 03:18:06;;;;;;;1.88;0.80;;;;;;;21.16;50.31;101813.66;5099908;28;20032;-60
2022/05/27 03:20:50;;;;;;;1.52;0.70;;;;;;;21.15;50.12;101820.06;5119167;28;20170;-60
2022/05/27 03:23:40;;;;;;;0.63;0.60;;;;;;;21.14;50.27;101819.22;5095885;28;20039;-59
2022/05/27 03:26:14;;;;;;;1.95;0.70;;;;;;;21.13;50.05;101814.81;5106116;28;20038;-59
2022/05/27 03:28:48;;;;;;;1.40;0.80;;;;;;;21.14;50.23;101816.50;5124095;28;20024;-59
2022/05/27 03:31:22;;;;;;;0.85;0.60;;;;;;;21.13;49.99;101819.38;5124324;28;20050;-60
2022/05/27 03:34:02;;;;;;;2.08;0.90;;;;;;;21.13;49.73;101816.69;5123276;28;20489;-60
2022/05/27 03:36:34;;;;;;;1.65;1.08;;;;;;;21.13;49.74;101812.13;5106071;28;20058;-56
2022/05/27 03:39:17;;;;;;;1.02;0.68;;;;;;;21.13;50.16;101813.97;5106115;28;20123;-59
2022/05/27 03:41:46;;;;;;;1.85;1.05;;;;;;;21.13;49.71;101811.28;5105609;28;20035;-59
2022/05/27 03:44:20;;;;;;;1.33;0.77;;;;;;;21.13;49.96;101817.53;5096992;28;20028;-60
2022/05/27 03:46:50;;;;;;;1.05;0.75;;;;;;;21.13;49.68;101808.56;5085575;28;20486;-60
2022/05/27 03:49:16;;;;;;;1.38;0.70;;;;;;;21.12;49.86;101810.44;5084720;28;20013;-60
2022/05/27 03:51:52;;;;;;;0.95;0.52;;;;;;;21.12;49.67;101818.53;5103578;28;20055;-57
2022/05/27 03:54:18;;;;;;;1.30;0.80;;;;;;;21.12;49.60;101820.41;5085674;28;20054;-60
2022/05/27 03:56:43;;;;;;;1.33;0.60;;;;;;;21.11;49.72;101816.84;5103587;28;20477;-59
2022/05/27 03:59:12;;;;;;;1.90;0.82;;;;;;;21.12;50.03;101820.41;5104430;28;20032;-58
2022/05/27 04:01:39;;;;;;;;;;;;;;;21.10;49.88;101820.53;5108114;28;20028;-58
2022/05/27 04:04:06;;;;;;;0.98;0.55;;;;;;;21.09;49.86;101818.84;5106789;28;19916;-59
2022/05/27 04:06:32;;;;;;;1.42;0.60;;;;;;;21.10;50.05;101825.94;5108092;28;20020;-59
2022/05/27 04:08:57;;;;;;;1.42;0.70;;;;;;;21.10;49.70;101833.22;5096133;28;20050;-60
2022/05/27 04:11:24;;;;;;;0.85;0.70;;;;;;;21.09;49.73;101832.38;5095169;28;20047;-59
2022/05/27 04:13:49;;;;;;;1.08;0.70;;;;;;;21.09;49.67;101835.09;5107038;28;20032;-58
2022/05/27 04:16:15;;;;;;;1.55;0.70;;;;;;;21.09;50.00;101836.94;5113013;28;20016;-59
2022/05/27 04:18:40;;;;;;;0.88;0.60;;;;;;;21.09;50.35;101834.25;5087805;28;20048;-60
2022/05/27 04:21:06;;;;;;;1.70;0.70;;;;;;;21.08;50.13;101841.50;5107169;28;20057;-59
2022/05/27 04:23:31;;;;;;;1.75;0.60;;;;;;;21.08;50.46;101832.56;5108506;28;20028;-59
2022/05/27 04:25:56;;;;;;;2.45;0.70;;;;;;;21.08;50.08;101836.09;5088913;28;20047;-59
2022/05/27 04:28:21;;;;;;;2.33;1.08;;;;;;;21.08;50.44;101830.69;5106872;28;20028;-60
2022/05/27 04:30:47;;;;;;;1.33;0.75;;;;;;;21.07;50.38;101831.72;5088862;28;20026;-59
2022/05/27 04:33:12;;;;;;;2.70;0.85;;;;;;;21.06;50.85;101829.13;5105583;28;20063;-60
2022/05/27 04:35:38;;;;;;;1.83;0.57;;;;;;;21.08;50.57;101832.56;5107334;28;20430;-60
2022/05/27 04:38:04;;;;;;;1.30;0.55;;;;;;;21.02;50.70;101814.25;5116810;28;20071;-60
2022/05/27 04:40:29;;;;;;;1.40;0.90;;;;;;;21.03;50.99;101822.22;5117391;28;20030;-60
2022/05/27 04:42:54;;;;;;;1.30;0.50;;;;;;;21.06;51.30;101823.72;5115100;28;20028;-59
2022/05/27 04:45:20;;;;;;;0.80;0.63;;;;;;;21.06;50.84;101826.44;5117498;28;20106;-59
2022/05/27 04:47:46;;;;;;;1.25;0.63;;;;;;;21.02;50.95;101822.34;5115646;28;20028;-60
2022/05/27 04:50:11;;;;;;;1.95;0.70;;;;;;;21.00;50.81;101824.41;5115831;28;20111;-59
2022/05/27 04:52:37;;;;;;;1.92;0.80;;;;;;;20.99;50.89;101817.28;5115345;28;20020;-59
2022/05/27 04:55:07;;;;;;;1.00;0.68;;;;;;;21.01;50.73;101824.22;5112325;28;20032;-60
2022/05/27 04:57:38;;;;;;;1.30;0.70;;;;;;;21.05;50.99;101844.53;5114497;28;20035;-60
2022/05/27 05:00:11;;;;;;;0.88;0.60;;;;;;;21.05;51.01;101841.81;5116039;28;20173;-60
2022/05/27 05:02:36;;;;;;;1.77;0.85;;;;;;;21.05;50.43;101852.63;5095763;28;20043;-60
2022/05/27 05:05:02;;;;;;;1.77;0.70;;;;;;;21.04;50.62;101840.13;5112692;28;20024;-58
2022/05/27 05:07:27;;;;;;;1.67;1.10;;;;;;;20.99;50.77;101844.34;5107577;28;20020;-58
2022/05/27 05:09:52;;;;;;;1.30;0.70;;;;;;;21.04;50.93;101850.94;5116968;28;20019;-58
2022/05/27 05:12:24;;;;;;;1.20;0.82;;;;;;;21.05;51.05;101854.50;5111138;27;20027;-57
2022/05/27 05:14:50;;;;;;;0.90;0.60;;;;;;;21.04;50.94;101848.25;5114490;28;20019;-59
2022/05/27 05:17:16;;;;;;;0.70;0.50;;;;;;;21.05;51.01;101855.34;5116369;28;20098;-59
2022/05/27 05:19:41;;;;;;;1.33;0.85;;;;;;;21.02;50.57;101849.41;5112155;28;20496;-59
2022/05/27 05:22:06;;;;;;;2.55;0.70;;;;;;;21.05;50.43;101857.19;5115340;28;20027;-59
2022/05/27 05:24:31;;;;;;;1.42;0.60;;;;;;;21.05;50.82;101855.34;5117327;27;20759;-54
2022/05/27 05:26:57;;;;;;;0.85;0.57;;;;;;;21.06;50.90;101864.28;5117186;27;20031;-48
2022/05/27 05:29:23;;;;;;;2.25;0.80;;;;;;;21.07;50.78;101861.44;5114381;27;20048;-60
2022/05/27 05:31:48;;;;;;;1.30;0.70;;;;;;;21.07;50.94;101866.84;5109696;28;20023;-59
2022/05/27 05:34:13;;;;;;;2.28;0.52;;;;;;;21.09;50.63;101864.81;5092726;28;20365;-51
2022/05/27 05:36:38;;;;;;;2.30;0.80;;;;;;;21.08;50.50;101863.13;5115185;27;20040;-49
2022/05/27 05:39:04;;;;;;;0.60;0.50;;;;;;;21.06;50.60;101861.59;5107909;28;20055;-50
2022/05/27 05:41:36;;;;;;;1.48;0.63;;;;;;;21.11;50.80;101872.78;5107771;28;20028;-52
2022/05/27 05:44:02;;;;;;;1.38;0.80;;;;;;;21.09;50.85;101870.22;5110357;28;20036;-53
2022/05/27 05:46:28;;;;;;;2.90;1.13;;;;;;;21.12;50.67;101875.34;5099347;28;20051;-50
2022/05/27 05:48:54;;;;;;;1.33;0.57;;;;;;;21.13;50.49;101876.19;5110157;28;20020;-55
2022/05/27 05:51:20;;;;;;;0.70;0.60;;;;;;;21.13;50.89;101874.31;5104041;28;20120;-54
2022/05/27 05:53:45;;;;;;;2.17;0.60;;;;;;;21.13;50.38;101868.91;5089331;27;20053;-52
2022/05/27 05:56:10;;;;;;;0.80;0.60;;;;;;;21.13;50.52;101878.88;5089328;28;20035;-53
2022/05/27 05:58:35;;;;;;;1.02;0.77;;;;;;;21.14;50.72;101876.00;5107405;28;20051;-55
2022/05/27 06:01:01;;;;;;;1.38;0.70;;;;;;;21.06;50.27;101862.44;5117122;27;20031;-53
2022/05/27 06:03:26;;;;;;;1.27;0.80;;;;;;;21.11;50.49;101873.66;5107695;28;20061;-51
2022/05/27 06:05:52;;;;;;;0.77;0.65;;;;;;;21.15;50.46;101877.72;5115158;27;20031;-53
2022/05/27 06:08:18;;;;;;;2.38;0.63;;;;;;;21.14;50.37;101872.47;5103136;28;20024;-53
2022/05/27 06:10:44;;;;;;;1.98;0.75;;;;;;;21.17;50.75;101874.84;5107470;28;20169;-52
2022/05/27 06:13:10;;;;;;;1.25;0.60;;;;;;;21.18;50.25;101884.66;5110742;28;20585;-53
2022/05/27 06:15:36;;;;;;;1.08;0.65;;;;;;;21.11;50.61;101876.34;5106418;28;20056;-54
2022/05/27 06:18:01;;;;;;;1.35;0.68;;;;;;;21.18;50.48;101885.50;5110469;28;20148;-58
2022/05/27 06:20:27;;;;;;;0.60;0.60;;;;;;;21.19;50.26;101886.34;5104124;28;20028;-58
2022/05/27 06:22:52;;;;;;;1.30;0.50;;;;;;;21.19;50.18;101891.75;5103776;28;20028;-59
2022/05/27 06:25:17;;;;;;;1.77;0.70;;;;;;;21.17;50.45;101891.91;5104906;28;20024;-59
2022/05/27 06:27:42;;;;;;;2.30;0.93;;;;;;;21.18;50.36;101895.47;5104646;28;20065;-59
2022/05/27 06:35:40;;;;;;;1.88;0.88;;;;;;;21.17;50.16;101907.31;5089290;28;20031;-59
2022/05/27 06:38:05;;;;;;;1.13;0.85;;;;;;;21.19;50.18;101908.81;5069291;28;20105;-57
2022/05/27 06:40:30;;;;;;;3.42;0.70;;;;;;;21.15;50.07;101907.47;5104091;27;20027;-51
2022/05/27 06:42:56;;;;;;;2.58;0.70;;;;;;;21.19;50.12;101908.81;5109248;27;20039;-50
2022/05/27 06:45:21;;;;;;;1.65;0.70;;;;;;;21.21;49.68;101919.50;5109841;27;20051;-50
2022/05/27 06:47:46;;;;;;;1.38;0.85;;;;;;;21.21;49.75;101908.69;5107455;27;20023;-53
2022/05/27 06:50:12;;;;;;;1.75;0.73;;;;;;;21.21;50.07;101903.28;5093160;28;20030;-52
2022/05/27 06:52:39;;;;;;;2.30;0.77;;;;;;;21.21;50.06;101925.75;5106860;28;20058;-52
2022/05/27 06:55:05;;;;;;;2.72;1.02;;;;;;;21.17;49.84;101916.25;5104621;28;20091;-54
2022/05/27 06:57:30;;;;;;;2.03;0.68;;;;;;;21.21;49.82;101925.75;5102191;28;20059;-54
2022/05/27 06:59:55;;;;;;;1.17;0.60;;;;;;;21.22;49.72;101930.16;5106450;28;20032;-51
2022/05/27 07:02:22;;;;;;;1.88;0.70;;;;;;;21.20;49.99;101932.19;5091666;28;20027;-52
2022/05/27 07:04:47;;;;;;;1.05;0.80;;;;;;;21.22;49.73;101937.41;5114392;27;20142;-53
2022/05/27 07:07:13;;;;;;;2.65;1.00;;;;;;;21.22;49.72;101940.13;5106446;27;20488;-50
2022/05/27 07:09:38;;;;;;;2.35;0.90;;;;;;;21.22;49.86;101934.72;5096361;28;20047;-53
2022/05/27 07:12:06;;;;;;;2.67;1.35;;;;;;;21.21;49.89;101933.03;5110835;28;20039;-59
2022/05/27 07:14:32;;;;;;;1.83;0.85;;;;;;;21.18;49.68;101936.03;5110466;28;20096;-51
2022/05/27 07:16:57;;;;;;;1.77;0.93;;;;;;;21.23;49.98;101944.53;5103288;28;20032;-59
2022/05/27 07:19:22;;;;;;;3.35;0.98;;;;;;;21.22;49.64;101942.84;5116054;28;20034;-59
2022/05/27 07:21:48;;;;;;;1.10;0.70;;;;;;;21.18;49.83;101930.63;5124337;28;20055;-59
2022/05/27 07:24:16;;;;;;;3.30;1.20;;;;;;;21.23;49.81;101942.66;5123724;28;20023;-59
2022/05/27 07:26:42;;;;;;;1.17;0.65;;;;;;;21.24;50.09;101935.41;5111445;28;20016;-58
2022/05/27 07:29:08;;;;;;;4.28;1.02;;;;;;;21.23;50.04;101931.84;5123851;28;20034;-59
2022/05/27 07:31:35;;;;;;;2.33;1.20;;;;;;;21.25;49.90;101944.38;5123872;28;20055;-58
2022/05/27 07:34:00;;;;;;;2.42;1.00;;;;;;;21.18;49.81;101928.78;5122929;28;20050;-58
2022/05/27 07:36:25;;;;;;;2.40;1.00;;;;;;;21.25;49.58;101933.56;5104809;28;20475;-58
2022/05/27 07:38:52;;;;;;;2.63;0.90;;;;;;;21.26;49.88;101948.78;5103111;28;20091;-58
2022/05/27 07:41:18;;;;;;;6.05;1.15;;;;;;;21.25;49.73;101939.81;5103822;28;20075;-59
2022/05/27 07:43:44;;;;;;;2.88;1.02;;;;;;;21.26;49.70;101951.47;5085032;28;20031;-59
2022/05/27 07:46:10;;;;;;;2.83;0.75;;;;;;;21.26;49.79;101943.38;5103823;28;20032;-59
2022/05/27 07:48:35;;;;;;;2.88;1.02;;;;;;;21.26;49.66;101955.03;5117184;28;20066;-59
2022/05/27 07:51:00;;;;;;;2.67;0.98;;;;;;;21.27;49.50;101951.31;5124010;28;20128;-60
2022/05/27 07:53:26;;;;;;;2.53;0.85;;;;;;;21.24;49.66;101946.25;5123918;28;20741;-59
2022/05/27 07:55:51;;;;;;;3.35;0.73;;;;;;;21.26;49.48;101946.91;5124220;28;20396;-60
2022/05/27 07:58:16;;;;;;;4.40;1.35;;;;;;;21.24;49.56;101954.34;5123670;28;20019;-59
2022/05/27 08:00:42;;;;;;;2.10;0.80;;;;;;;21.28;49.31;101961.16;5123718;28;20083;-59
2022/05/27 08:03:07;;;;;;;1.85;0.82;;;;;;;21.28;49.49;101955.72;5085208;28;20051;-59
2022/05/27 08:05:33;;;;;;;1.45;0.93;;;;;;;21.29;49.17;101962.00;5103605;28;20024;-59
2022/05/27 08:08:00;;;;;;;2.97;1.30;;;;;;;21.30;49.00;101971.78;5087566;28;20102;-60
2022/05/27 08:10:28;;;;;;;3.17;0.93;;;;;;;21.31;48.97;101977.03;5144313;28;20026;-60
2022/05/27 08:12:54;;;;;;;2.80;0.93;;;;;;;21.28;48.95;101968.38;5126882;28;20376;-59
2022/05/27 08:15:19;;;;;;;2.35;1.00;;;;;;;21.30;49.06;101977.22;5123770;28;20031;-60
2022/05/27 08:17:45;;;;;;;3.13;1.23;;;;;;;21.28;49.19;101976.50;5115285;28;20028;-59
2022/05/27 08:20:14;;;;;;;3.28;1.25;;;;;;;21.31;49.25;101981.59;5085195;28;20434;-59
2022/05/27 08:22:39;;;;;;;2.42;0.73;;;;;;;21.28;49.06;101973.78;5103309;28;20031;-59
2022/05/27 08:25:04;;;;;;;2.28;1.08;;;;;;;21.30;49.27;101972.63;5103059;28;20439;-58
2022/05/27 08:27:30;;;;;;;3.70;1.33;;;;;;;21.29;49.18;101989.03;5102753;28;20016;-56
2022/05/27 08:29:55;;;;;;;3.20;1.27;;;;;;;21.29;49.34;101989.88;5106944;28;20055;-56
2022/05/27 08:32:21;;;;;;;3.88;1.48;;;;;;;21.29;49.27;101984.47;5110477;28;20032;-56
2022/05/27 08:40:34;;;;;;;5.30;1.40;;;;;;;21.29;48.90;101989.88;5091069;28;20039;-57
2022/05/27 08:43:12;;;;;;;2.33;1.08;;;;;;;21.28;49.33;101990.03;5088377;28;20092;-56
2022/05/27 08:45:49;;;;;;;4.95;1.50;;;;;;;21.29;49.04;101991.75;5106820;28;20043;-54
2022/05/27 08:48:14;;;;;;;4.82;1.90;;;;;;;21.29;49.04;101994.44;5111859;28;20032;-54
2022/05/27 08:50:56;;;;;;;1.92;1.05;;;;;;;21.31;49.18;101995.13;5107889;27;20038;-56
2022/05/27 08:53:41;;;;;;;4.63;1.27;;;;;;;21.34;49.20;102002.97;5086920;28;20027;-57
2022/05/27 08:59:28;;;;;;;3.92;1.27;;;;;;;21.36;48.72;101988.25;5092916;28;20147;-55
2022/05/27 09:02:28;;;;;;;6.82;1.58;;;;;;;21.37;48.87;101992.69;5092138;28;20039;-50
2022/05/27 09:05:15;;;;;;;5.72;1.63;;;;;;;21.37;48.95;102002.66;5102950;27;20117;-51
2022/05/27 09:07:46;;;;;;;3.33;1.30;;;;;;;21.37;48.95;102006.22;5107945;27;20035;-50
2022/05/27 09:10:15;;;;;;;3.13;1.42;;;;;;;21.36;48.88;102001.78;5109587;27;20102;-50
2022/05/27 09:12:45;;;;;;;3.70;0.90;;;;;;;21.36;48.65;102011.75;5109041;28;20024;-50
2022/05/27 09:15:18;;;;;;;4.40;1.20;;;;;;;21.36;48.66;102007.19;5092873;28;20436;-51
2022/05/27 09:17:56;;;;;;;3.70;1.08;;;;;;;21.38;48.82;102007.06;5093958;28;20024;-53
2022/05/27 09:20:30;;;;;;;4.82;1.40;;;;;;;21.38;48.87;102002.50;5109702;27;20369;-50
2022/05/27 09:23:11;;;;;;;5.07;1.35;;;;;;;21.41;48.60;101999.47;5080695;28;20107;-52
2022/05/27 09:25:58;;;;;;;7.05;1.40;;;;;;;21.40;48.43;101997.75;5108503;28;20020;-58
2022/05/27 09:28:44;;;;;;;4.43;1.50;;;;;;;21.41;48.44;101995.94;5089923;28;20024;-56
2022/05/27 09:31:13;;;;;;;3.45;1.60;;;;;;;21.42;48.31;101998.47;5107171;27;20032;-58
2022/05/27 09:33:39;;;;;;;4.60;1.48;;;;;;;21.42;48.21;101998.47;5113690;27;20024;-55
2022/05/27 09:36:15;;;;;;;4.80;1.83;;;;;;;21.43;48.18;102005.56;5108406;27;20092;-52
2022/05/27 09:38:50;;;;;;;6.78;1.80;;;;;;;21.44;48.17;102001.84;5071627;28;20037;-52
2022/05/27 09:41:25;;;;;;;6.80;2.38;;;;;;;21.45;48.00;102017.09;5068262;28;20052;-51
2022/05/27 09:43:57;;;;;;;5.18;1.50;;;;;;;21.45;48.14;102002.69;5062433;28;20031;-60
2022/05/27 09:46:28;;;;;;;5.10;1.83;;;;;;;21.45;48.10;101992.75;5063427;28;20021;-60
2022/05/27 09:48:57;;;;;;;4.07;1.52;;;;;;;21.41;48.34;101987.81;5062720;28;20020;-59
2022/05/27 09:51:24;;;;;;;5.75;2.20;;;;;;;21.49;48.21;102014.03;5071004;28;20075;-60
2022/05/27 09:53:53;;;;;;;5.65;1.90;;;;;;;21.49;48.34;102006.78;5067821;28;20040;-60
2022/05/27 09:56:35;;;;;;;6.30;1.95;;;;;;;21.49;48.08;102009.47;5063935;28;20029;-60
2022/05/27 09:59:21;;;;;;;4.15;1.58;;;;;;;21.50;48.25;102015.78;5064810;28;20029;-60
2022/05/27 10:01:47;;;;;;;9.65;2.38;;;;;;;21.50;48.19;102013.06;5064707;28;20088;-59
2022/05/27 10:04:13;;;;;;;3.42;1.42;;;;;;;21.51;48.23;102028.28;5063965;28;20029;-59
2022/05/27 10:06:40;;;;;;;5.05;1.80;;;;;;;21.52;48.31;102014.56;5064968;28;20024;-59
2022/05/27 10:09:08;;;;;;;5.50;1.90;;;;;;;21.46;48.22;102007.97;5085030;28;20028;-60
2022/05/27 10:11:34;;;;;;;4.60;1.60;;;;;;;21.46;48.47;102010.66;5091046;28;20021;-59
2022/05/27 10:14:06;;;;;;;5.65;2.47;;;;;;;21.46;48.46;102017.94;5073414;28;20296;-59
2022/05/27 10:16:31;;;;;;;6.32;1.60;;;;;;;21.44;48.28;102003.69;5084381;28;20085;-60
2022/05/27 10:19:14;;;;;;;4.22;1.67;;;;;;;21.45;48.35;102000.84;5081377;28;20040;-59
2022/05/27 10:21:53;;;;;;;5.95;1.90;;;;;;;21.48;48.44;102009.66;5082960;28;20052;-59
2022/05/27 10:24:24;;;;;;;3.88;1.73;;;;;;;21.46;48.15;101997.13;5084433;28;20489;-59
2022/05/27 10:27:09;;;;;;;4.53;1.83;;;;;;;21.49;48.52;102000.50;5082985;28;20025;-59
2022/05/27 10:29:48;;;;;;;3.60;1.48;;;;;;;21.50;48.38;102004.94;5084050;28;20048;-60
2022/05/27 10:32:26;;;;;;;4.63;1.92;;;;;;;21.51;48.48;102003.94;5083869;28;20025;-60
2022/05/27 10:34:52;;;;;;;5.05;1.80;;;;;;;21.52;48.42;102002.91;5084071;28;20024;-59
2022/05/27 10:37:38;;;;;;;6.50;1.83;;;;;;;21.52;48.19;102002.91;5088694;28;20047;-60
2022/05/27 10:40:23;;;;;;;5.10;1.80;;;;;;;21.51;48.37;102021.00;5124202;28;20048;-59
2022/05/27 10:43:08;;;;;;;3.22;1.60;;;;;;;21.50;48.54;102011.19;5123814;28;20054;-59
2022/05/27 10:45:44;;;;;;;5.20;2.03;;;;;;;21.49;48.53;102017.59;5107410;28;20031;-59
2022/05/27 10:48:33;;;;;;;4.35;1.73;;;;;;;21.49;48.14;102012.19;5103182;28;20024;-59
2022/05/27 10:51:16;;;;;;;3.85;1.52;;;;;;;21.49;48.49;102012.19;5104521;28;20028;-59
2022/05/27 10:54:09;;;;;;;4.93;1.73;;;;;;;21.50;48.12;102023.88;5104344;28;20057;-59
2022/05/27 11:03:09;;;;;;;9.48;2.25;;;;;;;21.51;48.12;102012.03;5103307;28;20050;-60
2022/05/27 11:05:55;;;;;;;5.35;1.70;;;;;;;21.50;48.46;102010.34;5108759;28;20120;-58
2022/05/27 11:08:26;;;;;;;5.18;1.75;;;;;;;21.49;48.59;102017.59;5128018;27;20018;-69
2022/05/27 11:11:00;;;;;;;5.10;1.60;;;;;;;21.48;48.39;102012.34;5115612;28;20035;-68
2022/05/27 11:17:37;;;;;;;3.75;1.40;;;;;;;21.48;48.28;102015.91;4961702;28;20050;-67
2022/05/27 11:20:13;;;;;;;5.28;1.67;;;;;;;21.45;48.54;102019.78;4962650;29;20042;-68
2022/05/27 11:23:16;;;;;;;5.82;1.58;;;;;;;21.51;48.62;102033.69;4962521;29;20428;-68
2022/05/27 11:25:56;;;;;;;4.72;1.58;;;;;;;21.45;48.41;102025.22;4962626;29;20098;-67
2022/05/27 11:28:57;;;;;;;4.53;1.55;;;;;;;21.48;48.20;102040.25;4962430;29;20039;-68
2022/05/27 11:31:57;;;;;;;4.20;2.08;;;;;;;21.50;48.42;102045.53;4963554;28;20043;-68
2022/05/27 11:34:27;;;;;;;6.72;2.20;;;;;;;21.49;48.38;102041.09;4978792;28;20022;-67
2022/05/27 11:37:14;;;;;;;4.75;1.85;;;;;;;21.50;48.70;102032.00;4965953;28;20034;-68
2022/05/27 11:39:57;;;;;;;4.55;1.80;;;;;;;21.45;48.57;102027.03;4981766;28;20049;-67
2022/05/27 11:42:51;;;;;;;5.90;1.88;;;;;;;21.51;48.72;102039.94;4981194;28;20172;-67
2022/05/27 11:45:25;;;;;;;5.20;1.92;;;;;;;21.52;48.72;102038.09;4965824;28;20043;-67
2022/05/27 11:48:06;;;;;;;6.20;1.98;;;;;;;21.52;48.78;102028.09;4977426;28;20034;-67
2022/05/27 11:51:00;;;;;;;6.05;2.40;;;;;;;21.54;48.66;102030.69;5056290;28;20036;-68
2022/05/27 11:53:29;;;;;;;5.07;1.90;;;;;;;21.53;48.59;102021.69;5114092;28;20028;-66
2022/05/27 11:56:21;;;;;;;4.40;1.75;;;;;;;21.53;48.36;102021.69;5111734;28;20364;-67
2022/05/27 11:59:07;;;;;;;4.30;1.58;;;;;;;21.55;48.47;102026.97;5109968;28;20074;-68
2022/05/27 12:01:48;;;;;;;5.05;1.98;;;;;;;21.56;48.54;102023.22;5105390;28;20483;-68
2022/05/27 12:04:32;;;;;;;5.50;2.63;;;;;;;21.55;48.35;102027.81;5104502;28;20484;-69
2022/05/27 12:07:22;;;;;;;5.35;2.30;;;;;;;21.55;48.41;102044.03;5105735;28;20098;-69
2022/05/27 12:09:52;;;;;;;4.35;1.60;;;;;;;21.57;48.60;102038.47;5140474;28;20106;-69
2022/05/27 12:12:23;;;;;;;3.95;1.85;;;;;;;21.57;48.67;102046.56;5113744;28;20157;-69
2022/05/27 12:14:59;;;;;;;4.95;2.33;;;;;;;21.57;48.42;102060.94;5105569;28;20023;-70
2022/05/27 12:17:35;;;;;;;7.45;2.75;;;;;;;21.58;48.78;102062.69;5103511;28;20024;-68